sensor_id;sensor_type;location;lat;lon;timestamp;P1;durP1;ratioP1;P2;durP2;ratioP2
5452;SDS011;2749;53.576;9.822;2022-09-25T00:00:48;31.87;;;24.70;;
5452;SDS011;2749;53.576;9.822;2022-09-25T00:03:15;37.40;;;25.23;;
5452;SDS011;2749;53.576;9.822;2022-09-25T00:05:42;40.30;;;25.57;;
5452;SDS011;2749;53.576;9.822;2022-09-25T00:08:09;36.77;;;23.67;;
5452;SDS011;2749;53.576;9.822;2022-09-25T00:10:39;38.80;;;25.87;;
5452;SDS011;2749;53.576;9.822;2022-09-25T00:13:05;39.50;;;26.33;;
5452;SDS011;2749;53.576;9.822;2022-09-25T00:15:31;39.10;;;27.00;;
5452;SDS011;2749;53.576;9.822;2022-09-25T00:17:57;35.77;;;23.40;;
5452;SDS011;2749;53.576;9.822;2022-09-25T00:20:23;34.57;;;27.00;;
5452;SDS011;2749;53.576;9.822;2022-09-25T00:22:49;37.60;;;26.40;;
5452;SDS011;2749;53.576;9.822;2022-09-25T00:25:16;33.43;;;25.33;;
5452;SDS011;2749;53.576;9.822;2022-09-25T00:27:43;41.83;;;26.60;;
5452;SDS011;2749;53.576;9.822;2022-09-25T00:30:10;41.00;;;27.03;;
5452;SDS011;2749;53.576;9.822;2022-09-25T00:32:36;37.73;;;26.77;;
5452;SDS011;2749;53.576;9.822;2022-09-25T00:35:02;37.73;;;25.80;;
5452;SDS011;2749;53.576;9.822;2022-09-25T00:37:28;34.80;;;26.17;;
5452;SDS011;2749;53.576;9.822;2022-09-25T00:39:55;34.20;;;24.97;;
5452;SDS011;2749;53.576;9.822;2022-09-25T00:42:21;35.23;;;24.47;;
5452;SDS011;2749;53.576;9.822;2022-09-25T00:45:00;37.70;;;25.97;;
5452;SDS011;2749;53.576;9.822;2022-09-25T00:47:32;35.40;;;24.70;;
5452;SDS011;2749;53.576;9.822;2022-09-25T00:50:04;37.90;;;25.80;;
5452;SDS011;2749;53.576;9.822;2022-09-25T00:52:35;36.47;;;26.20;;
5452;SDS011;2749;53.576;9.822;2022-09-25T00:55:02;36.40;;;25.10;;
5452;SDS011;2749;53.576;9.822;2022-09-25T00:57:30;39.33;;;26.50;;
5452;SDS011;2749;53.576;9.822;2022-09-25T01:00:04;36.67;;;25.37;;
5452;SDS011;2749;53.576;9.822;2022-09-25T01:02:35;33.00;;;24.20;;
5452;SDS011;2749;53.576;9.822;2022-09-25T01:05:06;33.13;;;24.57;;
5452;SDS011;2749;53.576;9.822;2022-09-25T01:07:33;35.70;;;22.30;;
5452;SDS011;2749;53.576;9.822;2022-09-25T01:10:01;42.73;;;26.03;;
5452;SDS011;2749;53.576;9.822;2022-09-25T01:12:28;34.77;;;24.70;;
5452;SDS011;2749;53.576;9.822;2022-09-25T01:14:54;32.10;;;23.60;;
5452;SDS011;2749;53.576;9.822;2022-09-25T01:17:23;29.10;;;22.73;;
5452;SDS011;2749;53.576;9.822;2022-09-25T01:20:27;35.40;;;24.87;;
5452;SDS011;2749;53.576;9.822;2022-09-25T01:25:22;31.10;;;24.60;;
5452;SDS011;2749;53.576;9.822;2022-09-25T01:28:00;35.40;;;25.50;;
5452;SDS011;2749;53.576;9.822;2022-09-25T01:30:35;31.47;;;23.80;;
5452;SDS011;2749;53.576;9.822;2022-09-25T01:33:08;33.77;;;25.67;;
5452;SDS011;2749;53.576;9.822;2022-09-25T01:40:54;36.00;;;25.17;;
5452;SDS011;2749;53.576;9.822;2022-09-25T01:43:24;40.57;;;27.20;;
5452;SDS011;2749;53.576;9.822;2022-09-25T01:45:52;41.77;;;31.57;;
5452;SDS011;2749;53.576;9.822;2022-09-25T01:48:22;39.93;;;31.37;;
5452;SDS011;2749;53.576;9.822;2022-09-25T01:50:51;39.87;;;27.80;;
5452;SDS011;2749;53.576;9.822;2022-09-25T01:53:20;44.23;;;27.23;;
5452;SDS011;2749;53.576;9.822;2022-09-25T01:55:50;40.97;;;28.57;;
5452;SDS011;2749;53.576;9.822;2022-09-25T01:58:18;39.60;;;28.50;;
5452;SDS011;2749;53.576;9.822;2022-09-25T02:00:48;37.80;;;29.20;;
5452;SDS011;2749;53.576;9.822;2022-09-25T02:03:19;39.93;;;30.17;;
5452;SDS011;2749;53.576;9.822;2022-09-25T02:05:50;39.20;;;28.03;;
5452;SDS011;2749;53.576;9.822;2022-09-25T02:08:20;40.83;;;27.63;;
5452;SDS011;2749;53.576;9.822;2022-09-25T02:10:52;39.03;;;27.23;;
5452;SDS011;2749;53.576;9.822;2022-09-25T02:13:19;44.03;;;28.70;;
5452;SDS011;2749;53.576;9.822;2022-09-25T02:15:50;44.70;;;27.60;;
5452;SDS011;2749;53.576;9.822;2022-09-25T02:18:18;37.80;;;28.30;;
5452;SDS011;2749;53.576;9.822;2022-09-25T02:23:52;39.73;;;27.93;;
5452;SDS011;2749;53.576;9.822;2022-09-25T02:26:25;40.90;;;27.00;;
5452;SDS011;2749;53.576;9.822;2022-09-25T02:28:53;43.73;;;27.67;;
5452;SDS011;2749;53.576;9.822;2022-09-25T02:31:20;45.03;;;28.37;;
5452;SDS011;2749;53.576;9.822;2022-09-25T02:33:48;42.93;;;28.00;;
5452;SDS011;2749;53.576;9.822;2022-09-25T02:36:15;40.87;;;27.63;;
5452;SDS011;2749;53.576;9.822;2022-09-25T02:38:42;34.93;;;26.97;;
5452;SDS011;2749;53.576;9.822;2022-09-25T02:43:45;38.77;;;26.27;;
5452;SDS011;2749;53.576;9.822;2022-09-25T02:51:25;39.30;;;27.73;;
5452;SDS011;2749;53.576;9.822;2022-09-25T02:53:53;44.57;;;30.40;;
5452;SDS011;2749;53.576;9.822;2022-09-25T02:58:48;43.87;;;29.97;;
5452;SDS011;2749;53.576;9.822;2022-09-25T03:01:16;40.87;;;27.20;;
5452;SDS011;2749;53.576;9.822;2022-09-25T03:03:43;47.80;;;32.77;;
5452;SDS011;2749;53.576;9.822;2022-09-25T03:06:10;47.97;;;32.23;;
5452;SDS011;2749;53.576;9.822;2022-09-25T03:08:37;41.87;;;30.07;;
5452;SDS011;2749;53.576;9.822;2022-09-25T03:11:05;46.07;;;30.37;;
5452;SDS011;2749;53.576;9.822;2022-09-25T03:13:31;43.30;;;30.53;;
5452;SDS011;2749;53.576;9.822;2022-09-25T03:16:05;45.33;;;31.87;;
5452;SDS011;2749;53.576;9.822;2022-09-25T03:18:33;43.60;;;31.43;;
5452;SDS011;2749;53.576;9.822;2022-09-25T03:20:59;44.87;;;31.00;;
5452;SDS011;2749;53.576;9.822;2022-09-25T03:23:25;45.57;;;33.77;;
5452;SDS011;2749;53.576;9.822;2022-09-25T03:25:54;42.60;;;33.63;;
5452;SDS011;2749;53.576;9.822;2022-09-25T03:28:20;43.97;;;30.73;;
5452;SDS011;2749;53.576;9.822;2022-09-25T03:30:59;45.00;;;32.20;;
5452;SDS011;2749;53.576;9.822;2022-09-25T03:33:26;49.70;;;36.10;;
5452;SDS011;2749;53.576;9.822;2022-09-25T03:36:00;47.20;;;32.70;;
5452;SDS011;2749;53.576;9.822;2022-09-25T03:38:25;44.77;;;34.23;;
5452;SDS011;2749;53.576;9.822;2022-09-25T03:40:51;42.83;;;32.10;;
5452;SDS011;2749;53.576;9.822;2022-09-25T03:43:17;44.47;;;32.83;;
5452;SDS011;2749;53.576;9.822;2022-09-25T03:45:43;41.70;;;32.17;;
5452;SDS011;2749;53.576;9.822;2022-09-25T03:48:09;39.03;;;32.20;;
5452;SDS011;2749;53.576;9.822;2022-09-25T03:50:35;40.90;;;30.43;;
5452;SDS011;2749;53.576;9.822;2022-09-25T03:53:03;42.40;;;30.90;;
5452;SDS011;2749;53.576;9.822;2022-09-25T03:55:29;42.23;;;31.63;;
5452;SDS011;2749;53.576;9.822;2022-09-25T03:57:55;42.53;;;31.20;;
5452;SDS011;2749;53.576;9.822;2022-09-25T04:00:21;40.93;;;31.73;;
5452;SDS011;2749;53.576;9.822;2022-09-25T04:02:48;38.67;;;30.10;;
5452;SDS011;2749;53.576;9.822;2022-09-25T04:05:14;45.77;;;30.30;;
5452;SDS011;2749;53.576;9.822;2022-09-25T04:07:40;46.17;;;31.50;;
5452;SDS011;2749;53.576;9.822;2022-09-25T04:10:06;51.43;;;26.30;;
5452;SDS011;2749;53.576;9.822;2022-09-25T04:12:32;34.17;;;27.00;;
5452;SDS011;2749;53.576;9.822;2022-09-25T04:14:58;38.57;;;27.73;;
5452;SDS011;2749;53.576;9.822;2022-09-25T04:17:24;34.07;;;23.00;;
5452;SDS011;2749;53.576;9.822;2022-09-25T04:19:50;33.83;;;23.47;;
5452;SDS011;2749;53.576;9.822;2022-09-25T04:22:16;38.00;;;24.23;;
5452;SDS011;2749;53.576;9.822;2022-09-25T04:24:42;37.20;;;23.80;;
5452;SDS011;2749;53.576;9.822;2022-09-25T04:27:17;38.63;;;25.33;;
5452;SDS011;2749;53.576;9.822;2022-09-25T04:29:44;42.43;;;23.73;;
5452;SDS011;2749;53.576;9.822;2022-09-25T04:32:11;36.47;;;24.50;;
5452;SDS011;2749;53.576;9.822;2022-09-25T04:34:55;39.73;;;24.40;;
5452;SDS011;2749;53.576;9.822;2022-09-25T04:37:22;36.93;;;24.80;;
5452;SDS011;2749;53.576;9.822;2022-09-25T04:39:50;43.20;;;25.57;;
5452;SDS011;2749;53.576;9.822;2022-09-25T04:42:16;38.90;;;24.20;;
5452;SDS011;2749;53.576;9.822;2022-09-25T04:44:42;39.70;;;21.73;;
5452;SDS011;2749;53.576;9.822;2022-09-25T04:47:07;40.77;;;25.40;;
5452;SDS011;2749;53.576;9.822;2022-09-25T04:49:33;42.13;;;25.83;;
5452;SDS011;2749;53.576;9.822;2022-09-25T04:52:01;40.33;;;22.57;;
5452;SDS011;2749;53.576;9.822;2022-09-25T04:54:27;34.00;;;19.30;;
5452;SDS011;2749;53.576;9.822;2022-09-25T04:56:53;30.93;;;19.67;;
5452;SDS011;2749;53.576;9.822;2022-09-25T04:59:19;29.40;;;16.50;;
5452;SDS011;2749;53.576;9.822;2022-09-25T05:01:46;22.13;;;13.70;;
5452;SDS011;2749;53.576;9.822;2022-09-25T05:04:12;22.53;;;15.37;;
5452;SDS011;2749;53.576;9.822;2022-09-25T05:06:40;18.97;;;12.00;;
5452;SDS011;2749;53.576;9.822;2022-09-25T05:09:05;15.93;;;13.47;;
5452;SDS011;2749;53.576;9.822;2022-09-25T05:11:31;21.20;;;14.03;;
5452;SDS011;2749;53.576;9.822;2022-09-25T05:13:57;14.37;;;10.93;;
5452;SDS011;2749;53.576;9.822;2022-09-25T05:16:23;13.03;;;8.67;;
5452;SDS011;2749;53.576;9.822;2022-09-25T05:18:49;15.90;;;11.70;;
5452;SDS011;2749;53.576;9.822;2022-09-25T05:21:15;11.70;;;9.13;;
5452;SDS011;2749;53.576;9.822;2022-09-25T05:23:41;11.20;;;8.90;;
5452;SDS011;2749;53.576;9.822;2022-09-25T05:26:07;8.57;;;7.60;;
5452;SDS011;2749;53.576;9.822;2022-09-25T05:28:34;7.63;;;6.83;;
5452;SDS011;2749;53.576;9.822;2022-09-25T05:31:01;7.97;;;6.30;;
5452;SDS011;2749;53.576;9.822;2022-09-25T05:33:27;7.97;;;7.23;;
5452;SDS011;2749;53.576;9.822;2022-09-25T05:35:53;6.60;;;5.90;;
5452;SDS011;2749;53.576;9.822;2022-09-25T05:38:19;7.00;;;6.27;;
5452;SDS011;2749;53.576;9.822;2022-09-25T05:40:45;5.77;;;5.17;;
5452;SDS011;2749;53.576;9.822;2022-09-25T05:43:11;6.73;;;6.10;;
5452;SDS011;2749;53.576;9.822;2022-09-25T05:45:37;6.80;;;6.17;;
5452;SDS011;2749;53.576;9.822;2022-09-25T05:48:04;4.93;;;4.53;;
5452;SDS011;2749;53.576;9.822;2022-09-25T05:50:30;5.97;;;5.47;;
5452;SDS011;2749;53.576;9.822;2022-09-25T05:52:57;5.70;;;5.20;;
5452;SDS011;2749;53.576;9.822;2022-09-25T05:55:23;6.20;;;5.60;;
5452;SDS011;2749;53.576;9.822;2022-09-25T05:57:49;5.87;;;4.00;;
5452;SDS011;2749;53.576;9.822;2022-09-25T06:00:15;5.97;;;4.60;;
5452;SDS011;2749;53.576;9.822;2022-09-25T06:02:41;5.00;;;4.60;;
5452;SDS011;2749;53.576;9.822;2022-09-25T06:05:08;5.77;;;4.90;;
5452;SDS011;2749;53.576;9.822;2022-09-25T06:07:34;10.10;;;7.73;;
5452;SDS011;2749;53.576;9.822;2022-09-25T06:10:00;7.37;;;6.10;;
5452;SDS011;2749;53.576;9.822;2022-09-25T06:12:29;6.77;;;5.50;;
5452;SDS011;2749;53.576;9.822;2022-09-25T06:14:55;7.50;;;6.60;;
5452;SDS011;2749;53.576;9.822;2022-09-25T06:17:22;7.50;;;6.80;;
5452;SDS011;2749;53.576;9.822;2022-09-25T06:19:48;7.20;;;6.50;;
5452;SDS011;2749;53.576;9.822;2022-09-25T06:22:14;5.87;;;5.30;;
5452;SDS011;2749;53.576;9.822;2022-09-25T06:24:40;8.13;;;7.10;;
5452;SDS011;2749;53.576;9.822;2022-09-25T06:27:06;12.07;;;9.13;;
5452;SDS011;2749;53.576;9.822;2022-09-25T06:29:32;8.73;;;7.83;;
5452;SDS011;2749;53.576;9.822;2022-09-25T06:31:58;7.90;;;7.20;;
5452;SDS011;2749;53.576;9.822;2022-09-25T06:34:24;6.60;;;5.90;;
5452;SDS011;2749;53.576;9.822;2022-09-25T06:36:52;5.87;;;5.43;;
5452;SDS011;2749;53.576;9.822;2022-09-25T06:39:17;8.47;;;7.77;;
5452;SDS011;2749;53.576;9.822;2022-09-25T06:41:43;9.50;;;8.63;;
5452;SDS011;2749;53.576;9.822;2022-09-25T06:44:09;16.80;;;15.10;;
5452;SDS011;2749;53.576;9.822;2022-09-25T06:46:35;32.20;;;28.73;;
5452;SDS011;2749;53.576;9.822;2022-09-25T06:49:01;15.10;;;13.50;;
5452;SDS011;2749;53.576;9.822;2022-09-25T06:51:27;10.50;;;9.50;;
5452;SDS011;2749;53.576;9.822;2022-09-25T06:53:56;10.87;;;9.80;;
5452;SDS011;2749;53.576;9.822;2022-09-25T06:56:22;10.87;;;9.93;;
5452;SDS011;2749;53.576;9.822;2022-09-25T06:58:48;7.33;;;6.73;;
5452;SDS011;2749;53.576;9.822;2022-09-25T07:01:14;9.60;;;8.70;;
5452;SDS011;2749;53.576;9.822;2022-09-25T07:03:40;9.90;;;9.00;;
5452;SDS011;2749;53.576;9.822;2022-09-25T07:06:10;9.40;;;8.50;;
5452;SDS011;2749;53.576;9.822;2022-09-25T07:08:37;17.70;;;16.00;;
5452;SDS011;2749;53.576;9.822;2022-09-25T07:11:03;15.03;;;13.53;;
5452;SDS011;2749;53.576;9.822;2022-09-25T07:13:30;15.53;;;13.93;;
5452;SDS011;2749;53.576;9.822;2022-09-25T07:15:57;11.70;;;10.60;;
5452;SDS011;2749;53.576;9.822;2022-09-25T07:18:24;15.33;;;13.87;;
5452;SDS011;2749;53.576;9.822;2022-09-25T07:20:50;12.93;;;11.60;;
5452;SDS011;2749;53.576;9.822;2022-09-25T07:23:17;10.50;;;9.23;;
5452;SDS011;2749;53.576;9.822;2022-09-25T07:25:44;13.30;;;12.00;;
5452;SDS011;2749;53.576;9.822;2022-09-25T07:28:10;12.90;;;11.60;;
5452;SDS011;2749;53.576;9.822;2022-09-25T07:30:41;12.27;;;11.00;;
5452;SDS011;2749;53.576;9.822;2022-09-25T07:33:07;14.60;;;12.77;;
5452;SDS011;2749;53.576;9.822;2022-09-25T07:35:34;13.20;;;11.83;;
5452;SDS011;2749;53.576;9.822;2022-09-25T07:38:00;17.33;;;15.43;;
5452;SDS011;2749;53.576;9.822;2022-09-25T07:40:26;16.67;;;14.80;;
5452;SDS011;2749;53.576;9.822;2022-09-25T07:42:58;19.17;;;16.73;;
5452;SDS011;2749;53.576;9.822;2022-09-25T07:45:24;22.13;;;17.97;;
5452;SDS011;2749;53.576;9.822;2022-09-25T07:47:54;19.90;;;17.90;;
5452;SDS011;2749;53.576;9.822;2022-09-25T07:50:20;17.80;;;14.40;;
5452;SDS011;2749;53.576;9.822;2022-09-25T07:52:46;13.57;;;12.13;;
5452;SDS011;2749;53.576;9.822;2022-09-25T07:55:12;12.13;;;10.93;;
5452;SDS011;2749;53.576;9.822;2022-09-25T07:57:37;12.70;;;11.17;;
5452;SDS011;2749;53.576;9.822;2022-09-25T08:00:06;16.07;;;13.20;;
5452;SDS011;2749;53.576;9.822;2022-09-25T08:02:32;16.67;;;13.97;;
5452;SDS011;2749;53.576;9.822;2022-09-25T08:04:59;17.63;;;13.77;;
5452;SDS011;2749;53.576;9.822;2022-09-25T08:07:26;19.17;;;15.03;;
5452;SDS011;2749;53.576;9.822;2022-09-25T08:09:52;13.60;;;12.20;;
5452;SDS011;2749;53.576;9.822;2022-09-25T08:12:18;17.87;;;14.33;;
5452;SDS011;2749;53.576;9.822;2022-09-25T08:14:44;19.60;;;16.60;;
5452;SDS011;2749;53.576;9.822;2022-09-25T08:17:10;14.80;;;12.20;;
5452;SDS011;2749;53.576;9.822;2022-09-25T08:19:36;13.00;;;10.47;;
5452;SDS011;2749;53.576;9.822;2022-09-25T08:22:02;12.43;;;10.33;;
5452;SDS011;2749;53.576;9.822;2022-09-25T08:24:28;10.73;;;9.63;;
5452;SDS011;2749;53.576;9.822;2022-09-25T08:26:54;18.60;;;12.17;;
5452;SDS011;2749;53.576;9.822;2022-09-25T08:29:20;16.90;;;11.73;;
5452;SDS011;2749;53.576;9.822;2022-09-25T08:31:45;16.13;;;12.37;;
5452;SDS011;2749;53.576;9.822;2022-09-25T08:34:12;17.07;;;13.30;;
5452;SDS011;2749;53.576;9.822;2022-09-25T08:36:40;14.87;;;12.90;;
5452;SDS011;2749;53.576;9.822;2022-09-25T08:39:06;18.60;;;13.60;;
5452;SDS011;2749;53.576;9.822;2022-09-25T08:41:33;16.20;;;13.47;;
5452;SDS011;2749;53.576;9.822;2022-09-25T08:46:44;16.03;;;12.33;;
5452;SDS011;2749;53.576;9.822;2022-09-25T08:49:32;16.53;;;13.43;;
5452;SDS011;2749;53.576;9.822;2022-09-25T08:52:00;16.70;;;13.80;;
5452;SDS011;2749;53.576;9.822;2022-09-25T08:54:28;15.43;;;13.17;;
5452;SDS011;2749;53.576;9.822;2022-09-25T08:56:57;16.77;;;13.50;;
5452;SDS011;2749;53.576;9.822;2022-09-25T08:59:27;17.47;;;15.10;;
5452;SDS011;2749;53.576;9.822;2022-09-25T09:01:56;15.63;;;12.93;;
5452;SDS011;2749;53.576;9.822;2022-09-25T09:04:37;20.30;;;13.33;;
5452;SDS011;2749;53.576;9.822;2022-09-25T09:07:11;17.17;;;13.17;;
5452;SDS011;2749;53.576;9.822;2022-09-25T09:09:40;13.17;;;11.87;;
5452;SDS011;2749;53.576;9.822;2022-09-25T09:12:09;15.80;;;13.23;;
5452;SDS011;2749;53.576;9.822;2022-09-25T09:14:39;13.07;;;11.20;;
5452;SDS011;2749;53.576;9.822;2022-09-25T09:17:17;14.37;;;12.03;;
5452;SDS011;2749;53.576;9.822;2022-09-25T09:19:45;13.63;;;12.20;;
5452;SDS011;2749;53.576;9.822;2022-09-25T09:22:12;14.97;;;13.20;;
5452;SDS011;2749;53.576;9.822;2022-09-25T09:24:55;14.23;;;12.87;;
5452;SDS011;2749;53.576;9.822;2022-09-25T09:27:27;14.60;;;12.87;;
5452;SDS011;2749;53.576;9.822;2022-09-25T09:32:37;15.10;;;13.30;;
5452;SDS011;2749;53.576;9.822;2022-09-25T09:43:04;15.73;;;12.33;;
5452;SDS011;2749;53.576;9.822;2022-09-25T09:48:05;15.67;;;11.50;;
5452;SDS011;2749;53.576;9.822;2022-09-25T09:50:41;18.90;;;13.07;;
5452;SDS011;2749;53.576;9.822;2022-09-25T09:53:10;13.70;;;11.27;;
5452;SDS011;2749;53.576;9.822;2022-09-25T09:55:45;16.17;;;12.17;;
5452;SDS011;2749;53.576;9.822;2022-09-25T09:58:16;13.23;;;10.57;;
5452;SDS011;2749;53.576;9.822;2022-09-25T10:00:43;11.63;;;10.20;;
5452;SDS011;2749;53.576;9.822;2022-09-25T10:05:37;12.77;;;11.47;;
5452;SDS011;2749;53.576;9.822;2022-09-25T10:08:04;13.33;;;11.93;;
5452;SDS011;2749;53.576;9.822;2022-09-25T10:10:34;12.63;;;11.27;;
5452;SDS011;2749;53.576;9.822;2022-09-25T10:13:01;15.00;;;10.83;;
5452;SDS011;2749;53.576;9.822;2022-09-25T10:18:45;13.57;;;11.57;;
5452;SDS011;2749;53.576;9.822;2022-09-25T10:21:13;12.17;;;10.87;;
5452;SDS011;2749;53.576;9.822;2022-09-25T10:23:47;13.93;;;10.53;;
5452;SDS011;2749;53.576;9.822;2022-09-25T10:28:49;14.20;;;10.43;;
5452;SDS011;2749;53.576;9.822;2022-09-25T10:31:15;12.10;;;10.50;;
5452;SDS011;2749;53.576;9.822;2022-09-25T10:33:42;14.17;;;11.50;;
5452;SDS011;2749;53.576;9.822;2022-09-25T10:36:08;12.63;;;9.97;;
5452;SDS011;2749;53.576;9.822;2022-09-25T10:38:38;10.87;;;9.23;;
5452;SDS011;2749;53.576;9.822;2022-09-25T10:41:12;12.60;;;10.27;;
5452;SDS011;2749;53.576;9.822;2022-09-25T10:46:24;13.70;;;9.90;;
5452;SDS011;2749;53.576;9.822;2022-09-25T10:49:12;11.07;;;9.53;;
5452;SDS011;2749;53.576;9.822;2022-09-25T10:52:01;15.37;;;10.40;;
5452;SDS011;2749;53.576;9.822;2022-09-25T10:54:29;12.73;;;11.43;;
5452;SDS011;2749;53.576;9.822;2022-09-25T10:56:55;18.33;;;11.93;;
5452;SDS011;2749;53.576;9.822;2022-09-25T10:59:21;12.93;;;11.13;;
5452;SDS011;2749;53.576;9.822;2022-09-25T11:01:48;16.70;;;10.90;;
5452;SDS011;2749;53.576;9.822;2022-09-25T11:04:22;14.20;;;11.73;;
5452;SDS011;2749;53.576;9.822;2022-09-25T11:06:54;15.60;;;12.50;;
5452;SDS011;2749;53.576;9.822;2022-09-25T11:09:22;13.00;;;10.80;;
5452;SDS011;2749;53.576;9.822;2022-09-25T11:11:48;13.97;;;12.37;;
5452;SDS011;2749;53.576;9.822;2022-09-25T11:14:37;14.53;;;10.97;;
5452;SDS011;2749;53.576;9.822;2022-09-25T11:17:03;16.20;;;12.00;;
5452;SDS011;2749;53.576;9.822;2022-09-25T11:19:36;13.53;;;10.13;;
5452;SDS011;2749;53.576;9.822;2022-09-25T11:27:25;11.50;;;9.83;;
5452;SDS011;2749;53.576;9.822;2022-09-25T11:29:58;9.90;;;8.90;;
5452;SDS011;2749;53.576;9.822;2022-09-25T11:32:34;9.93;;;8.77;;
5452;SDS011;2749;53.576;9.822;2022-09-25T11:35:18;9.67;;;8.13;;
5452;SDS011;2749;53.576;9.822;2022-09-25T11:38:03;11.53;;;8.00;;
5452;SDS011;2749;53.576;9.822;2022-09-25T11:46:05;11.17;;;9.17;;
5452;SDS011;2749;53.576;9.822;2022-09-25T11:48:59;17.80;;;8.90;;
5452;SDS011;2749;53.576;9.822;2022-09-25T11:51:30;9.60;;;8.50;;
5452;SDS011;2749;53.576;9.822;2022-09-25T11:56:48;14.97;;;8.93;;
5452;SDS011;2749;53.576;9.822;2022-09-25T12:01:53;9.60;;;8.57;;
5452;SDS011;2749;53.576;9.822;2022-09-25T12:07:21;8.47;;;7.60;;
5452;SDS011;2749;53.576;9.822;2022-09-25T12:12:20;8.10;;;6.60;;
5452;SDS011;2749;53.576;9.822;2022-09-25T12:17:43;7.67;;;6.87;;
5452;SDS011;2749;53.576;9.822;2022-09-25T12:22:53;6.83;;;5.90;;
5452;SDS011;2749;53.576;9.822;2022-09-25T12:28:13;6.70;;;5.90;;
5452;SDS011;2749;53.576;9.822;2022-09-25T12:31:03;11.30;;;5.93;;
5452;SDS011;2749;53.576;9.822;2022-09-25T12:36:05;4.80;;;4.30;;
5452;SDS011;2749;53.576;9.822;2022-09-25T12:38:38;5.67;;;4.23;;
5452;SDS011;2749;53.576;9.822;2022-09-25T12:41:10;5.17;;;4.67;;
5452;SDS011;2749;53.576;9.822;2022-09-25T12:43:42;5.80;;;5.20;;
5452;SDS011;2749;53.576;9.822;2022-09-25T12:53:54;8.23;;;5.83;;
5452;SDS011;2749;53.576;9.822;2022-09-25T13:01:41;6.07;;;5.47;;
5452;SDS011;2749;53.576;9.822;2022-09-25T13:06:49;6.43;;;4.20;;
5452;SDS011;2749;53.576;9.822;2022-09-25T13:09:40;6.90;;;4.30;;
5452;SDS011;2749;53.576;9.822;2022-09-25T13:12:22;7.50;;;4.20;;
5452;SDS011;2749;53.576;9.822;2022-09-25T13:14:57;5.57;;;4.33;;
5452;SDS011;2749;53.576;9.822;2022-09-25T13:17:23;7.50;;;4.40;;
5452;SDS011;2749;53.576;9.822;2022-09-25T13:19:49;4.87;;;3.93;;
5452;SDS011;2749;53.576;9.822;2022-09-25T13:22:17;7.53;;;3.67;;
5452;SDS011;2749;53.576;9.822;2022-09-25T13:24:51;4.93;;;4.23;;
5452;SDS011;2749;53.576;9.822;2022-09-25T13:27:21;6.00;;;3.10;;
5452;SDS011;2749;53.576;9.822;2022-09-25T13:29:55;4.07;;;3.40;;
5452;SDS011;2749;53.576;9.822;2022-09-25T13:32:23;5.70;;;3.93;;
5452;SDS011;2749;53.576;9.822;2022-09-25T13:34:53;5.13;;;4.50;;
5452;SDS011;2749;53.576;9.822;2022-09-25T13:37:23;9.93;;;4.20;;
5452;SDS011;2749;53.576;9.822;2022-09-25T13:39:49;7.77;;;3.90;;
5452;SDS011;2749;53.576;9.822;2022-09-25T13:42:35;4.37;;;2.77;;
5452;SDS011;2749;53.576;9.822;2022-09-25T13:45:04;5.87;;;3.70;;
5452;SDS011;2749;53.576;9.822;2022-09-25T13:55:13;2.87;;;2.67;;
5452;SDS011;2749;53.576;9.822;2022-09-25T14:01:04;4.70;;;2.90;;
5452;SDS011;2749;53.576;9.822;2022-09-25T14:05:55;8.53;;;3.73;;
5452;SDS011;2749;53.576;9.822;2022-09-25T14:08:22;6.03;;;2.90;;
5452;SDS011;2749;53.576;9.822;2022-09-25T14:10:49;3.40;;;3.10;;
5452;SDS011;2749;53.576;9.822;2022-09-25T14:13:16;4.53;;;2.80;;
5452;SDS011;2749;53.576;9.822;2022-09-25T14:15:43;3.53;;;2.67;;
5452;SDS011;2749;53.576;9.822;2022-09-25T14:18:20;11.77;;;6.00;;
5452;SDS011;2749;53.576;9.822;2022-09-25T14:20:48;3.23;;;2.93;;
5452;SDS011;2749;53.576;9.822;2022-09-25T14:23:21;3.20;;;2.03;;
5452;SDS011;2749;53.576;9.822;2022-09-25T14:25:55;3.33;;;2.80;;
5452;SDS011;2749;53.576;9.822;2022-09-25T14:30:49;2.13;;;1.60;;
5452;SDS011;2749;53.576;9.822;2022-09-25T14:33:21;4.30;;;1.80;;
5452;SDS011;2749;53.576;9.822;2022-09-25T14:36:24;5.07;;;2.27;;
5452;SDS011;2749;53.576;9.822;2022-09-25T14:41:15;5.40;;;1.67;;
5452;SDS011;2749;53.576;9.822;2022-09-25T14:44:05;4.80;;;1.80;;
5452;SDS011;2749;53.576;9.822;2022-09-25T14:46:38;4.67;;;1.90;;
5452;SDS011;2749;53.576;9.822;2022-09-25T14:49:13;2.97;;;1.80;;
5452;SDS011;2749;53.576;9.822;2022-09-25T14:51:42;6.00;;;1.60;;
5452;SDS011;2749;53.576;9.822;2022-09-25T14:54:16;4.03;;;2.07;;
5452;SDS011;2749;53.576;9.822;2022-09-25T14:56:42;3.43;;;1.40;;
5452;SDS011;2749;53.576;9.822;2022-09-25T14:59:14;4.53;;;1.50;;
5452;SDS011;2749;53.576;9.822;2022-09-25T15:01:44;4.97;;;2.10;;
5452;SDS011;2749;53.576;9.822;2022-09-25T15:04:11;6.43;;;1.50;;
5452;SDS011;2749;53.576;9.822;2022-09-25T15:06:37;4.07;;;1.50;;
5452;SDS011;2749;53.576;9.822;2022-09-25T15:09:25;6.13;;;1.50;;
5452;SDS011;2749;53.576;9.822;2022-09-25T15:11:52;5.70;;;1.73;;
5452;SDS011;2749;53.576;9.822;2022-09-25T15:14:19;4.67;;;1.87;;
5452;SDS011;2749;53.576;9.822;2022-09-25T15:16:45;5.03;;;1.53;;
5452;SDS011;2749;53.576;9.822;2022-09-25T15:19:40;5.20;;;1.77;;
5452;SDS011;2749;53.576;9.822;2022-09-25T15:22:10;5.30;;;1.30;;
5452;SDS011;2749;53.576;9.822;2022-09-25T15:24:46;2.53;;;1.33;;
5452;SDS011;2749;53.576;9.822;2022-09-25T15:27:13;3.30;;;1.40;;
5452;SDS011;2749;53.576;9.822;2022-09-25T15:29:41;3.27;;;1.47;;
5452;SDS011;2749;53.576;9.822;2022-09-25T15:32:26;3.90;;;1.00;;
5452;SDS011;2749;53.576;9.822;2022-09-25T15:35:04;2.00;;;1.70;;
5452;SDS011;2749;53.576;9.822;2022-09-25T15:37:30;3.10;;;1.50;;
5452;SDS011;2749;53.576;9.822;2022-09-25T15:39:59;3.40;;;1.50;;
5452;SDS011;2749;53.576;9.822;2022-09-25T15:42:25;4.30;;;1.50;;
5452;SDS011;2749;53.576;9.822;2022-09-25T15:44:51;6.83;;;1.77;;
5452;SDS011;2749;53.576;9.822;2022-09-25T15:49:59;3.47;;;1.13;;
5452;SDS011;2749;53.576;9.822;2022-09-25T15:52:26;4.83;;;1.40;;
5452;SDS011;2749;53.576;9.822;2022-09-25T15:54:58;2.50;;;0.90;;
5452;SDS011;2749;53.576;9.822;2022-09-25T15:57:25;2.70;;;0.90;;
5452;SDS011;2749;53.576;9.822;2022-09-25T15:59:52;2.63;;;1.10;;
5452;SDS011;2749;53.576;9.822;2022-09-25T16:02:48;3.40;;;1.17;;
5452;SDS011;2749;53.576;9.822;2022-09-25T16:05:34;3.20;;;1.30;;
5452;SDS011;2749;53.576;9.822;2022-09-25T16:13:27;1.97;;;1.30;;
5452;SDS011;2749;53.576;9.822;2022-09-25T16:15:53;2.50;;;1.60;;
5452;SDS011;2749;53.576;9.822;2022-09-25T16:18:34;8.90;;;2.17;;
5452;SDS011;2749;53.576;9.822;2022-09-25T16:21:08;4.70;;;1.53;;
5452;SDS011;2749;53.576;9.822;2022-09-25T16:23:35;5.67;;;1.50;;
5452;SDS011;2749;53.576;9.822;2022-09-25T16:26:03;9.73;;;3.00;;
5452;SDS011;2749;53.576;9.822;2022-09-25T16:28:30;4.07;;;1.50;;
5452;SDS011;2749;53.576;9.822;2022-09-25T16:31:05;3.30;;;1.13;;
5452;SDS011;2749;53.576;9.822;2022-09-25T16:33:35;2.90;;;1.80;;
5452;SDS011;2749;53.576;9.822;2022-09-25T16:36:04;3.43;;;1.57;;
5452;SDS011;2749;53.576;9.822;2022-09-25T16:38:32;3.70;;;2.10;;
5452;SDS011;2749;53.576;9.822;2022-09-25T16:43:28;5.23;;;1.73;;
5452;SDS011;2749;53.576;9.822;2022-09-25T16:45:56;3.30;;;2.17;;
5452;SDS011;2749;53.576;9.822;2022-09-25T16:50:51;5.30;;;2.77;;
5452;SDS011;2749;53.576;9.822;2022-09-25T16:53:18;5.47;;;2.20;;
5452;SDS011;2749;53.576;9.822;2022-09-25T16:55:44;4.63;;;2.43;;
5452;SDS011;2749;53.576;9.822;2022-09-25T16:58:12;2.90;;;2.10;;
5452;SDS011;2749;53.576;9.822;2022-09-25T17:00:39;3.87;;;2.10;;
5452;SDS011;2749;53.576;9.822;2022-09-25T17:03:05;3.13;;;1.77;;
5452;SDS011;2749;53.576;9.822;2022-09-25T17:05:31;4.70;;;2.70;;
5452;SDS011;2749;53.576;9.822;2022-09-25T17:08:13;4.00;;;2.17;;
5452;SDS011;2749;53.576;9.822;2022-09-25T17:10:39;2.63;;;2.10;;
5452;SDS011;2749;53.576;9.822;2022-09-25T17:13:05;5.17;;;2.43;;
5452;SDS011;2749;53.576;9.822;2022-09-25T17:15:32;6.40;;;2.50;;
5452;SDS011;2749;53.576;9.822;2022-09-25T17:17:58;3.63;;;2.30;;